createdAt,value
2023-05-14T00:01:56.784Z,8.81
2023-05-14T00:07:01.364Z,8.79
2023-05-14T00:12:05.862Z,8.76
2023-05-14T00:17:09.625Z,8.67
2023-05-14T00:22:13.520Z,8.63
2023-05-14T00:27:17.466Z,8.64
2023-05-14T00:32:21.541Z,8.70
2023-05-14T00:37:25.852Z,8.83
2023-05-14T00:42:29.547Z,8.93
2023-05-14T00:47:35.227Z,9.02
2023-05-14T00:52:39.790Z,9.14
2023-05-14T00:57:44.210Z,9.31
2023-05-14T01:02:48.139Z,9.43
2023-05-14T01:08:08.997Z,9.50
2023-05-14T01:13:27.956Z,9.58
2023-05-14T01:18:34.043Z,9.62
2023-05-14T01:23:38.357Z,9.66
2023-05-14T01:28:42.837Z,9.69
2023-05-14T01:33:49.847Z,9.71
2023-05-14T01:38:55.025Z,9.77
2023-05-14T01:43:59.285Z,9.80
2023-05-14T01:49:03.823Z,9.83
2023-05-14T01:54:07.680Z,9.84
2023-05-14T01:59:11.648Z,9.86
2023-05-14T02:04:16.069Z,9.87
2023-05-14T02:09:19.932Z,9.86
2023-05-14T02:14:23.730Z,9.86
2023-05-14T02:19:27.328Z,9.87
2023-05-14T02:24:31.083Z,9.81
2023-05-14T02:29:34.845Z,9.77
2023-05-14T02:34:39.073Z,9.70
2023-05-14T02:39:42.806Z,9.61
2023-05-14T02:44:46.850Z,9.51
2023-05-14T02:49:50.696Z,9.41
2023-05-14T02:54:54.482Z,9.33
2023-05-14T02:59:58.371Z,9.27
2023-05-14T03:05:03.774Z,9.24
2023-05-14T03:10:08.089Z,9.20
2023-05-14T03:15:12.133Z,9.19
2023-05-14T03:20:16.046Z,9.15
2023-05-14T03:25:20.696Z,9.12
2023-05-14T03:30:24.806Z,9.11
2023-05-14T03:35:29.521Z,9.10
2023-05-14T03:40:34.602Z,9.17
2023-05-14T03:45:40.328Z,9.88
2023-05-14T03:50:45.256Z,10.40
2023-05-14T03:55:49.565Z,11.29
2023-05-14T04:00:54.067Z,12.06
2023-05-14T04:05:57.756Z,13.00
2023-05-14T04:11:01.552Z,13.77
2023-05-14T04:16:06.021Z,14.30
2023-05-14T04:21:09.962Z,15.11
2023-05-14T04:26:13.751Z,15.42
2023-05-14T04:31:17.637Z,15.75
2023-05-14T04:36:21.435Z,15.96
2023-05-14T04:41:26.073Z,16.74
2023-05-14T04:46:29.937Z,17.06
2023-05-14T04:51:33.876Z,17.07
2023-05-14T04:56:37.739Z,16.97
2023-05-14T05:01:41.548Z,16.84
2023-05-14T05:06:46.268Z,16.10
2023-05-14T05:11:51.022Z,15.17
2023-05-14T05:16:54.802Z,14.73
2023-05-14T05:21:58.835Z,14.53
2023-05-14T05:27:02.827Z,14.40
2023-05-14T05:32:08.021Z,14.20
2023-05-14T05:37:14.483Z,14.07
2023-05-14T05:42:19.823Z,13.98
2023-05-14T05:47:23.819Z,14.01
2023-05-14T05:52:28.098Z,14.06
2023-05-14T05:57:32.615Z,14.11
2023-05-14T06:02:37.168Z,14.41
2023-05-14T06:07:42.777Z,14.69
2023-05-14T06:12:47.063Z,14.85
2023-05-14T06:17:51.055Z,15.04
2023-05-14T06:22:54.667Z,15.22
2023-05-14T06:27:58.707Z,15.24
2023-05-14T06:33:02.668Z,15.29
2023-05-14T06:38:06.697Z,15.43
2023-05-14T06:43:10.349Z,15.52
2023-05-14T06:48:14.413Z,15.72
2023-05-14T06:53:18.381Z,16.29
2023-05-14T06:58:22.343Z,16.58
2023-05-14T07:03:26.250Z,16.87
2023-05-14T07:08:30.181Z,17.30
2023-05-14T07:13:34.034Z,17.72
2023-05-14T07:18:37.969Z,17.87
2023-05-14T07:23:41.728Z,17.89
2023-05-14T07:28:45.504Z,17.81
2023-05-14T07:33:49.381Z,17.81
2023-05-14T07:38:53.178Z,17.85
2023-05-14T07:43:56.859Z,18.03
2023-05-14T07:49:03.609Z,18.15
2023-05-14T07:54:08.697Z,18.15
2023-05-14T07:59:14.497Z,18.05
2023-05-14T08:04:19.315Z,17.96
2023-05-14T08:09:23.071Z,18.08
2023-05-14T08:14:26.957Z,18.15
2023-05-14T08:19:30.966Z,18.16
2023-05-14T08:24:35.249Z,18.29
2023-05-14T08:29:39.079Z,18.43
2023-05-14T08:34:44.034Z,18.52
2023-05-14T08:39:48.138Z,18.60
2023-05-14T08:45:04.033Z,18.51
2023-05-14T08:50:08.780Z,18.50
2023-05-14T08:55:17.215Z,18.61
2023-05-14T09:00:24.103Z,18.81
2023-05-14T09:05:28.457Z,19.09
2023-05-14T09:10:32.855Z,19.05
2023-05-14T09:15:38.097Z,18.77
2023-05-14T09:20:41.851Z,18.47
2023-05-14T09:25:46.078Z,18.53
2023-05-14T09:30:53.642Z,18.83
2023-05-14T09:36:03.432Z,18.79
2023-05-14T09:41:07.527Z,18.74
2023-05-14T09:46:11.542Z,18.88
2023-05-14T09:51:16.141Z,18.90
2023-05-14T09:56:20.160Z,18.78
2023-05-14T10:01:25.063Z,18.67
2023-05-14T10:06:34.305Z,18.56
2023-05-14T10:11:38.886Z,18.41
2023-05-14T10:16:47.584Z,18.31
2023-05-14T10:22:12.209Z,18.45
2023-05-14T10:27:17.722Z,18.55
2023-05-14T10:32:24.659Z,18.76
2023-05-14T10:37:29.408Z,18.98
2023-05-14T10:42:42.964Z,19.68
2023-05-14T10:47:49.161Z,20.05
2023-05-14T10:52:53.661Z,20.34
2023-05-14T10:58:05.981Z,19.93
2023-05-14T11:03:10.977Z,19.46
2023-05-14T11:08:14.830Z,19.61
2023-05-14T11:13:19.659Z,19.81
2023-05-14T11:18:29.303Z,19.58
2023-05-14T11:23:33.514Z,19.76
2023-05-14T11:28:37.487Z,20.14
2023-05-14T11:33:41.798Z,20.33
2023-05-14T11:38:52.947Z,20.34
2023-05-14T11:43:58.816Z,20.47
2023-05-14T11:49:05.370Z,20.92
2023-05-14T11:54:09.780Z,21.12
2023-05-14T11:59:13.602Z,21.53
2023-05-14T12:04:19.243Z,21.65
2023-05-14T12:09:23.447Z,21.49
2023-05-14T12:14:30.425Z,21.42
2023-05-14T12:19:34.211Z,21.23
2023-05-14T12:24:39.557Z,21.19
2023-05-14T12:29:44.294Z,21.57
2023-05-14T12:34:47.972Z,21.67
2023-05-14T12:39:51.618Z,21.14
2023-05-14T12:44:55.348Z,20.74
2023-05-14T12:49:59.444Z,20.79
2023-05-14T12:55:04.184Z,20.97
2023-05-14T13:00:14.155Z,21.27
2023-05-14T13:05:18.663Z,21.19
2023-05-14T13:10:32.464Z,21.23
2023-05-14T13:15:36.733Z,21.21
2023-05-14T13:20:43.094Z,20.94
2023-05-14T13:25:49.754Z,20.45
2023-05-14T13:31:07.409Z,20.20
2023-05-14T13:36:13.736Z,20.28
2023-05-14T13:41:17.481Z,20.44
2023-05-14T13:46:23.119Z,20.83
2023-05-14T13:51:27.444Z,21.31
2023-05-14T13:56:31.079Z,21.66
2023-05-14T14:01:34.924Z,21.89
2023-05-14T14:06:40.133Z,22.12
2023-05-14T14:11:43.943Z,22.08
2023-05-14T14:16:48.943Z,21.97
2023-05-14T14:21:52.978Z,21.71
2023-05-14T14:26:57.052Z,21.49
2023-05-14T14:32:00.858Z,21.36
2023-05-14T14:37:06.682Z,21.35
2023-05-14T14:42:10.329Z,21.19
2023-05-14T14:47:14.102Z,21.03
2023-05-14T14:52:18.911Z,20.99
2023-05-14T14:57:23.281Z,20.83
2023-05-14T15:02:27.333Z,20.71
2023-05-14T15:07:33.240Z,20.37
2023-05-14T15:12:37.029Z,20.27
2023-05-14T15:17:40.722Z,20.21
2023-05-14T15:22:44.746Z,20.08
2023-05-14T15:27:49.068Z,20.15
2023-05-14T15:32:52.947Z,20.25
2023-05-14T15:38:00.136Z,20.23
2023-05-14T15:43:04.030Z,20.15
2023-05-14T15:48:07.971Z,20.08
2023-05-14T15:53:11.772Z,19.95
2023-05-14T15:58:15.704Z,19.78
2023-05-14T16:03:21.481Z,19.63
2023-05-14T16:08:27.820Z,19.60
2023-05-14T16:13:31.957Z,19.53
2023-05-14T16:18:35.686Z,19.44
2023-05-14T16:23:39.264Z,19.40
2023-05-14T16:28:43.304Z,19.29
2023-05-14T16:33:47.219Z,19.14
2023-05-14T16:39:06.624Z,19.11
2023-05-14T16:44:11.286Z,19.05
2023-05-14T16:49:18.154Z,18.93
2023-05-14T16:54:21.959Z,18.87
2023-05-14T16:59:25.862Z,18.74
2023-05-14T17:04:29.764Z,18.58
2023-05-14T17:09:34.185Z,18.46
2023-05-14T17:14:37.961Z,18.23
2023-05-14T17:19:43.333Z,18.06
2023-05-14T17:24:47.626Z,17.97
2023-05-14T17:29:52.229Z,17.98
2023-05-14T17:34:57.136Z,17.89
2023-05-14T17:40:01.020Z,17.67
2023-05-14T17:45:06.359Z,17.58
2023-05-14T17:50:10.707Z,17.52
2023-05-14T17:55:14.776Z,17.44
2023-05-14T18:00:22.509Z,17.38
2023-05-14T18:05:26.809Z,17.34
2023-05-14T18:10:31.608Z,17.21
2023-05-14T18:15:37.278Z,17.01
2023-05-14T18:20:46.318Z,16.67
2023-05-14T18:25:51.064Z,16.49
2023-05-14T18:30:58.355Z,16.50
2023-05-14T18:36:04.256Z,16.47
2023-05-14T18:41:09.433Z,16.42
2023-05-14T18:46:14.675Z,16.40
2023-05-14T18:51:19.058Z,16.37
2023-05-14T18:56:26.816Z,16.34
2023-05-14T19:01:33.119Z,16.31
2023-05-14T19:06:43.229Z,16.26
2023-05-14T19:11:48.298Z,16.23
2023-05-14T19:16:53.097Z,16.21
2023-05-14T19:21:58.300Z,16.15
2023-05-14T19:27:05.158Z,15.94
2023-05-14T19:32:10.016Z,15.86
2023-05-14T19:37:16.799Z,15.87
2023-05-14T19:42:21.289Z,15.89
2023-05-14T19:47:25.009Z,15.89
2023-05-14T19:52:32.240Z,15.80
2023-05-14T19:57:37.668Z,15.41
2023-05-14T20:02:42.329Z,15.14
2023-05-14T20:07:49.371Z,14.96
2023-05-14T20:12:53.529Z,14.88
2023-05-14T20:17:58.336Z,14.79
2023-05-14T20:23:03.125Z,14.76
2023-05-14T20:28:07.935Z,14.75
2023-05-14T20:33:13.951Z,14.70
2023-05-14T20:38:19.701Z,14.67
2023-05-14T20:43:23.715Z,14.62
2023-05-14T20:48:28.204Z,14.50
2023-05-14T20:53:32.138Z,14.36
2023-05-14T20:58:35.947Z,14.20
2023-05-14T21:03:41.703Z,14.11
2023-05-14T21:08:46.260Z,14.09
2023-05-14T21:13:50.242Z,14.05
2023-05-14T21:18:55.155Z,13.99
2023-05-14T21:23:59.058Z,13.89
2023-05-14T21:29:04.488Z,13.81
2023-05-14T21:34:08.778Z,13.66
2023-05-14T21:39:13.110Z,13.50
2023-05-14T21:44:17.554Z,13.37
2023-05-14T21:49:21.961Z,13.27
2023-05-14T21:54:25.989Z,13.22
2023-05-14T21:59:30.055Z,13.18
2023-05-14T22:04:34.476Z,13.11
2023-05-14T22:09:38.741Z,13.07
2023-05-14T22:14:42.586Z,13.06
2023-05-14T22:19:46.728Z,13.04
2023-05-14T22:24:50.584Z,13.01
2023-05-14T22:29:55.443Z,12.97
2023-05-14T22:34:59.379Z,12.93
2023-05-14T22:40:05.417Z,12.86
2023-05-14T22:45:09.984Z,12.80
2023-05-14T22:50:13.936Z,12.75
2023-05-14T22:55:18.374Z,12.70
2023-05-14T23:00:22.631Z,12.67
2023-05-14T23:05:27.337Z,12.65
2023-05-14T23:10:31.669Z,12.64
2023-05-14T23:15:35.484Z,12.62
2023-05-14T23:20:39.313Z,12.60
2023-05-14T23:25:43.320Z,12.58
2023-05-14T23:30:47.058Z,12.55
2023-05-14T23:35:50.821Z,12.50
2023-05-14T23:40:54.605Z,12.48
2023-05-14T23:45:58.958Z,12.45
2023-05-14T23:51:03.041Z,12.43
2023-05-14T23:56:06.950Z,12.38
